Time;durP1;ratioP1;P1;durP2;ratioP2;P2;SDS_P1;SDS_P2;PMS_P1;PMS_P2;Temp;Humidity;BMP_temperature;BMP_pressure;BME280_temperature;BME280_humidity;BME280_pressure;Samples;Min_cycle;Max_cycle;Signal;HPM_P1;HPM_P2
2023/06/19 00:01:41;;;;;;;5.30;4.90;;;25.20;70.10;;;;;;5077842;28;20551;-57
2023/06/19 00:04:07;;;;;;;6.10;5.50;;;25.20;70.10;;;;;;5071020;28;20453;-55
2023/06/19 00:06:37;;;;;;;5.90;5.40;;;25.20;70.10;;;;;;5077911;28;20486;-57
2023/06/19 00:09:04;;;;;;;5.90;5.40;;;25.20;70.10;;;;;;5078167;28;20506;-58
2023/06/19 00:11:31;;;;;;;5.43;4.93;;;25.20;70.10;;;;;;5074003;28;21030;-54
2023/06/19 00:13:59;;;;;;;6.00;5.50;;;25.20;70.20;;;;;;5079917;28;20498;-57
2023/06/19 00:16:25;;;;;;;5.77;5.17;;;25.20;70.20;;;;;;5073763;28;20848;-55
2023/06/19 00:18:55;;;;;;;6.47;5.87;;;25.20;70.20;;;;;;5073583;28;20904;-58
2023/06/19 00:21:24;;;;;;;5.70;5.30;;;25.20;70.20;;;;;;5081363;28;20460;-57
2023/06/19 00:23:50;;;;;;;6.57;5.60;;;25.20;70.70;;;;;;5080243;28;20843;-57
2023/06/19 00:26:17;;;;;;;6.17;5.67;;;25.10;70.10;;;;;;5076743;28;20487;-57
2023/06/19 00:28:45;;;;;;;5.73;5.23;;;25.10;70.10;;;;;;5074508;28;20475;-55
2023/06/19 00:31:13;;;;;;;7.07;6.13;;;25.10;70.20;;;;;;5078930;28;20461;-57
2023/06/19 00:33:40;;;;;;;6.13;5.63;;;25.10;70.20;;;;;;5072551;28;20452;-57
2023/06/19 00:36:10;;;;;;;6.30;5.43;;;25.10;70.30;;;;;;5080707;28;20460;-57
2023/06/19 00:38:37;;;;;;;6.20;5.60;;;25.10;70.30;;;;;;5083684;28;20543;-57
2023/06/19 00:41:05;;;;;;;6.10;5.60;;;25.10;70.30;;;;;;5079294;28;20551;-57
2023/06/19 00:43:31;;;;;;;6.00;5.60;;;25.10;70.30;;;;;;5074178;28;20484;-55
2023/06/19 00:45:58;;;;;;;5.23;4.83;;;25.10;70.30;;;;;;5078749;28;20473;-58
2023/06/19 00:48:28;;;;;;;5.47;5.07;;;25.10;70.30;;;;;;5073916;28;20460;-58
2023/06/19 00:50:55;;;;;;;6.33;5.83;;;25.10;70.30;;;;;;5086946;28;20509;-57
2023/06/19 00:53:23;;;;;;;5.37;4.93;;;25.10;70.30;;;;;;5079423;28;20646;-57
2023/06/19 00:55:52;;;;;;;5.20;4.80;;;25.10;70.30;;;;;;5076384;28;20981;-56
2023/06/19 00:58:20;;;;;;;8.40;5.50;;;25.10;70.30;;;;;;5075557;28;20546;-57
2023/06/19 01:00:46;;;;;;;5.90;5.40;;;25.10;70.30;;;;;;5071106;28;20460;-56
2023/06/19 01:03:13;;;;;;;5.87;5.37;;;25.10;70.30;;;;;;5070057;28;20449;-54
2023/06/19 01:05:41;;;;;;;6.17;5.43;;;25.10;70.30;;;;;;5074794;28;20480;-58
2023/06/19 01:08:15;;;;;;;5.57;5.17;;;25.10;70.30;;;;;;5075829;28;20509;-57
2023/06/19 01:10:45;;;;;;;5.87;5.37;;;25.10;70.30;;;;;;5073724;28;20491;-56
2023/06/19 01:13:18;;;;;;;5.70;5.20;;;25.10;70.40;;;;;;5073702;28;20471;-57
2023/06/19 01:15:45;;;;;;;6.27;5.67;;;25.10;70.30;;;;;;5074335;28;20461;-58
2023/06/19 01:18:12;;;;;;;6.60;6.00;;;25.10;70.30;;;;;;5072658;28;20465;-54
2023/06/19 01:20:41;;;;;;;5.43;5.03;;;25.10;70.30;;;;;;5089089;28;20460;-54
2023/06/19 01:23:09;;;;;;;6.13;5.63;;;25.10;70.30;;;;;;5084553;28;20452;-57
2023/06/19 01:25:36;;;;;;;5.23;4.73;;;25.10;70.30;;;;;;5079786;28;20891;-57
2023/06/19 01:28:05;;;;;;;6.83;6.23;;;25.10;70.30;;;;;;5079309;28;20462;-58
2023/06/19 01:30:32;;;;;;;5.60;5.20;;;25.10;70.30;;;;;;5083966;28;20460;-57
2023/06/19 01:33:04;;;;;;;6.70;6.10;;;25.10;70.30;;;;;;5078492;28;20457;-56
2023/06/19 01:35:36;;;;;;;5.87;5.27;;;25.10;70.30;;;;;;5075352;28;20481;-56
2023/06/19 01:38:03;;;;;;;6.10;5.60;;;25.10;70.30;;;;;;5079732;28;20461;-56
2023/06/19 01:40:32;;;;;;;5.43;4.97;;;25.10;70.30;;;;;;5087030;28;20452;-58
2023/06/19 01:43:01;;;;;;;6.27;5.70;;;25.10;70.30;;;;;;5081385;28;20441;-58
2023/06/19 01:45:28;;;;;;;6.63;6.03;;;25.10;70.30;;;;;;5072230;28;20570;-58
2023/06/19 01:47:55;;;;;;;5.50;4.90;;;25.10;70.30;;;;;;5084394;28;20809;-58
2023/06/19 01:50:23;;;;;;;5.90;5.27;;;25.00;70.20;;;;;;5072732;28;20457;-56
2023/06/19 01:52:50;;;;;;;8.30;5.47;;;25.00;70.20;;;;;;5084770;28;20526;-57
2023/06/19 01:55:17;;;;;;;5.47;5.07;;;25.00;70.20;;;;;;5083575;28;20464;-57
2023/06/19 01:57:45;;;;;;;5.43;5.00;;;25.10;70.30;;;;;;5081175;28;20498;-56
2023/06/19 02:00:13;;;;;;;6.07;5.50;;;25.00;70.20;;;;;;5075034;28;21028;-57
2023/06/19 02:02:40;;;;;;;5.60;5.10;;;25.00;70.20;;;;;;5074386;28;20952;-56
2023/06/19 02:05:07;;;;;;;6.07;5.57;;;25.00;70.20;;;;;;5080845;28;20452;-55
2023/06/19 02:07:34;;;;;;;6.20;5.70;;;25.00;70.20;;;;;;5082766;28;20487;-57
2023/06/19 02:10:00;;;;;;;4.97;4.57;;;25.00;70.20;;;;;;5076095;28;20464;-57
2023/06/19 02:12:27;;;;;;;5.33;4.83;;;25.00;70.20;;;;;;5081106;28;20464;-55
2023/06/19 02:14:55;;;;;;;5.60;5.10;;;25.00;70.30;;;;;;5080450;28;20461;-57
2023/06/19 02:17:22;;;;;;;5.10;4.70;;;25.00;70.20;;;;;;5080940;28;20464;-58
2023/06/19 02:19:49;;;;;;;4.70;4.30;;;25.00;70.30;;;;;;5078166;28;20476;-57
2023/06/19 02:22:15;;;;;;;6.30;5.87;;;25.00;70.30;;;;;;5081585;28;20547;-58
2023/06/19 02:24:44;;;;;;;4.90;4.50;;;25.00;70.30;;;;;;5078588;28;20460;-58
2023/06/19 02:27:11;;;;;;;6.10;5.50;;;25.00;70.30;;;;;;5073491;28;21101;-57
2023/06/19 02:29:37;;;;;;;5.70;5.20;;;25.00;70.30;;;;;;5075792;28;20464;-57
2023/06/19 02:32:06;;;;;;;5.00;4.60;;;25.00;70.30;;;;;;5081983;28;20576;-57
2023/06/19 02:34:33;;;;;;;5.73;5.27;;;25.00;70.30;;;;;;5074669;28;20483;-56
2023/06/19 02:37:00;;;;;;;5.40;4.90;;;25.00;70.30;;;;;;5079799;28;20472;-57
2023/06/19 02:39:26;;;;;;;5.93;5.43;;;25.00;70.30;;;;;;5090275;28;20457;-56
2023/06/19 02:41:53;;;;;;;4.70;4.30;;;25.00;70.30;;;;;;5078469;28;20459;-56
2023/06/19 02:44:20;;;;;;;5.37;4.90;;;25.00;70.30;;;;;;5073025;28;20461;-57
2023/06/19 02:46:46;;;;;;;5.60;5.20;;;25.00;70.30;;;;;;5081323;28;20484;-57
2023/06/19 02:49:14;;;;;;;4.80;4.30;;;25.00;70.30;;;;;;5078445;28;20457;-57
2023/06/19 02:51:41;;;;;;;5.30;4.90;;;25.00;70.30;;;;;;5075112;28;20505;-55
2023/06/19 02:54:07;;;;;;;6.57;5.97;;;25.00;70.30;;;;;;5077022;28;20451;-55
2023/06/19 02:56:34;;;;;;;5.60;5.10;;;25.00;70.30;;;;;;5075503;28;20461;-56
2023/06/19 02:59:01;;;;;;;5.17;4.77;;;25.00;70.30;;;;;;5077103;28;20785;-54
2023/06/19 03:01:27;;;;;;;5.70;5.30;;;25.00;70.30;;;;;;5077615;28;20461;-56
2023/06/19 03:03:54;;;;;;;5.47;4.97;;;25.00;70.30;;;;;;5081296;28;20461;-57
2023/06/19 03:06:22;;;;;;;5.70;5.20;;;25.00;70.30;;;;;;5082119;28;20468;-56
2023/06/19 03:08:49;;;;;;;5.70;5.20;;;25.00;70.30;;;;;;5079154;28;20433;-57
2023/06/19 03:11:16;;;;;;;4.90;4.50;;;25.00;70.40;;;;;;5074468;28;20509;-57
2023/06/19 03:13:47;;;;;;;4.37;4.07;;;25.00;70.40;;;;;;5081776;28;20464;-56
2023/06/19 03:16:15;;;;;;;5.60;5.10;;;25.00;70.30;;;;;;5071661;28;20999;-57
2023/06/19 03:18:42;;;;;;;4.87;4.47;;;25.00;70.40;;;;;;5073872;28;20465;-56
2023/06/19 03:21:08;;;;;;;5.53;5.03;;;25.00;70.40;;;;;;5076418;28;20451;-54
2023/06/19 03:23:36;;;;;;;5.93;5.43;;;25.00;70.40;;;;;;5079459;28;20547;-58
2023/06/19 03:26:03;;;;;;;5.73;5.23;;;25.00;70.40;;;;;;5074762;28;20984;-56
2023/06/19 03:28:30;;;;;;;5.03;4.63;;;25.00;70.40;;;;;;5078846;28;20539;-56
2023/06/19 03:30:56;;;;;;;4.60;4.20;;;25.00;70.40;;;;;;5069948;28;20461;-56
2023/06/19 03:33:23;;;;;;;4.93;4.43;;;25.00;70.40;;;;;;5081467;28;20967;-56
2023/06/19 03:35:50;;;;;;;4.70;4.30;;;25.00;70.40;;;;;;5082080;28;20459;-55
2023/06/19 03:38:16;;;;;;;5.00;4.60;;;25.00;70.40;;;;;;5081208;28;20952;-57
2023/06/19 03:40:44;;;;;;;6.00;5.50;;;25.00;70.40;;;;;;5076864;28;20467;-56
2023/06/19 03:43:12;;;;;;;4.70;4.30;;;24.90;70.20;;;;;;5086449;28;20441;-56
2023/06/19 03:45:38;;;;;;;4.97;4.57;;;25.00;70.40;;;;;;5072741;28;20837;-56
2023/06/19 03:48:05;;;;;;;5.73;5.23;;;24.90;70.30;;;;;;5076668;28;20489;-56
2023/06/19 03:50:32;;;;;;;5.07;4.63;;;24.90;70.30;;;;;;5081241;28;20475;-57
2023/06/19 03:52:59;;;;;;;5.17;4.77;;;25.00;70.40;;;;;;5085719;28;20470;-55
2023/06/19 03:55:25;;;;;;;4.90;4.50;;;24.90;70.30;;;;;;5073961;28;20463;-57
2023/06/19 03:57:53;;;;;;;5.27;4.87;;;24.90;70.30;;;;;;5075644;28;20464;-56
2023/06/19 04:00:20;;;;;;;5.10;4.70;;;24.90;70.30;;;;;;5079461;28;20460;-57
2023/06/19 04:02:47;;;;;;;4.57;4.27;;;24.90;70.30;;;;;;5081314;28;20871;-58
2023/06/19 04:05:15;;;;;;;5.83;5.33;;;24.90;70.30;;;;;;5077287;28;20460;-53
2023/06/19 04:07:42;;;;;;;5.17;4.77;;;24.90;71.10;;;;;;5087812;28;20853;-57
2023/06/19 04:10:11;;;;;;;5.53;5.13;;;24.90;70.30;;;;;;5079655;28;20456;-57
2023/06/19 04:12:37;;;;;;;4.67;4.37;;;24.90;70.30;;;;;;5085651;28;20456;-57
2023/06/19 04:15:07;;;;;;;4.70;4.30;;;24.90;70.30;;;;;;5075157;28;20457;-55
2023/06/19 04:17:33;;;;;;;5.67;5.20;;;24.90;70.30;;;;;;5075244;28;20469;-55
2023/06/19 04:20:00;;;;;;;4.87;4.47;;;24.90;70.30;;;;;;5082467;28;20510;-57
2023/06/19 04:22:27;;;;;;;4.30;4.00;;;24.90;70.30;;;;;;5086854;28;20440;-56
2023/06/19 04:24:53;;;;;;;5.33;4.93;;;24.90;70.30;;;;;;5079330;28;20484;-57
2023/06/19 04:27:20;;;;;;;4.80;4.40;;;24.90;70.30;;;;;;5081851;28;20479;-58
2023/06/19 04:29:47;;;;;;;5.40;5.00;;;24.90;70.40;;;;;;5072245;28;20461;-56
2023/06/19 04:32:15;;;;;;;5.37;4.97;;;24.90;70.30;;;;;;5078594;28;20465;-56
2023/06/19 04:34:45;;;;;;;5.83;4.90;;;24.90;70.40;;;;;;5087589;28;20456;-58
2023/06/19 04:37:12;;;;;;;5.13;4.73;;;24.90;70.40;;;;;;5081423;28;20539;-57
2023/06/19 04:39:39;;;;;;;4.73;4.43;;;24.90;70.40;;;;;;5076802;28;20972;-57
2023/06/19 04:42:07;;;;;;;5.50;5.03;;;24.90;70.40;;;;;;5079186;28;20848;-56
2023/06/19 04:44:33;;;;;;;4.93;4.53;;;24.90;70.40;;;;;;5077520;28;20455;-58
2023/06/19 04:47:00;;;;;;;5.10;4.70;;;24.90;70.40;;;;;;5081067;28;20482;-57
2023/06/19 04:49:30;;;;;;;5.10;4.67;;;24.90;70.40;;;;;;5081563;28;20452;-58
2023/06/19 04:51:56;;;;;;;5.60;5.10;;;24.90;70.40;;;;;;5089902;28;20564;-57
2023/06/19 04:54:23;;;;;;;5.40;5.00;;;24.90;70.40;;;;;;5075330;28;20458;-56
2023/06/19 04:56:50;;;;;;;5.63;5.13;;;24.90;70.40;;;;;;5076496;28;20522;-57
2023/06/19 04:59:17;;;;;;;4.73;4.33;;;24.90;70.40;;;;;;5077534;28;20456;-57
2023/06/19 05:01:45;;;;;;;4.60;4.20;;;24.90;70.40;;;;;;5079094;28;20464;-58
2023/06/19 05:04:11;;;;;;;7.53;4.50;;;24.90;70.40;;;;;;5075615;28;20503;-56
2023/06/19 05:06:39;;;;;;;4.53;4.13;;;24.90;70.40;;;;;;5083952;28;21118;-56
2023/06/19 05:09:06;;;;;;;4.00;3.70;;;24.90;70.40;;;;;;5073505;28;20457;-57
2023/06/19 05:11:33;;;;;;;5.37;4.90;;;24.90;70.40;;;;;;5074874;28;20464;-57
2023/06/19 05:14:00;;;;;;;4.50;4.20;;;24.90;70.40;;;;;;5067986;28;22153;-58
2023/06/19 05:16:26;;;;;;;4.27;3.97;;;24.90;70.40;;;;;;5071222;28;20788;-58
2023/06/19 05:18:53;;;;;;;5.60;5.10;;;24.90;70.40;;;;;;5067642;28;20871;-54
2023/06/19 05:21:20;;;;;;;4.80;4.40;;;24.90;70.40;;;;;;5070208;28;20476;-54
2023/06/19 05:23:50;;;;;;;4.03;3.73;;;24.90;70.40;;;;;;5068989;28;20571;-56
2023/06/19 05:26:17;;;;;;;4.80;4.40;;;24.90;70.40;;;;;;5071403;28;20893;-54
2023/06/19 05:28:43;;;;;;;5.00;4.50;;;24.90;70.40;;;;;;5070556;28;20506;-58
2023/06/19 05:31:10;;;;;;;5.27;4.73;;;24.90;70.40;;;;;;5058034;28;20468;-55
2023/06/19 05:33:37;;;;;;;5.13;4.73;;;24.90;70.50;;;;;;5069823;28;20449;-56
2023/06/19 05:36:04;;;;;;;4.87;4.57;;;24.90;70.40;;;;;;5079412;28;20457;-58
2023/06/19 05:38:31;;;;;;;5.30;4.17;;;24.90;70.50;;;;;;5074758;28;20457;-58
2023/06/19 05:40:59;;;;;;;4.60;4.20;;;24.90;70.50;;;;;;5082347;28;20461;-57
2023/06/19 05:43:26;;;;;;;5.50;5.00;;;24.80;70.40;;;;;;5074619;28;20452;-58
2023/06/19 05:45:53;;;;;;;5.67;5.27;;;24.90;70.50;;;;;;5058163;28;20529;-57
2023/06/19 05:48:20;;;;;;;5.33;4.90;;;24.90;70.40;;;;;;5075717;28;20484;-58
2023/06/19 05:50:47;;;;;;;6.20;4.10;;;24.90;70.60;;;;;;5087385;28;20839;-56
2023/06/19 05:53:13;;;;;;;4.87;4.47;;;24.80;70.40;;;;;;5075280;28;20496;-57
2023/06/19 05:55:40;;;;;;;4.73;4.33;;;24.80;70.40;;;;;;5073849;28;20461;-57
2023/06/19 05:58:08;;;;;;;4.87;4.47;;;24.90;70.50;;;;;;5080327;28;20976;-53
2023/06/19 06:00:35;;;;;;;3.90;3.60;;;24.80;70.40;;;;;;5078058;28;20480;-55
2023/06/19 06:03:02;;;;;;;3.70;3.50;;;24.90;70.60;;;;;;5075101;28;20556;-55
2023/06/19 06:05:29;;;;;;;4.20;3.90;;;24.80;70.40;;;;;;5075571;28;20540;-52
2023/06/19 06:07:56;;;;;;;5.00;4.50;;;24.80;70.40;;;;;;5075626;28;20480;-54
2023/06/19 06:10:25;;;;;;;4.43;4.03;;;24.90;70.50;;;;;;5077247;28;20783;-55
2023/06/19 06:12:52;;;;;;;4.43;4.13;;;24.90;70.50;;;;;;5078724;28;20492;-55
2023/06/19 06:15:20;;;;;;;4.30;4.00;;;24.90;70.60;;;;;;5078600;28;20456;-52
2023/06/19 06:17:46;;;;;;;4.13;3.83;;;24.90;70.60;;;;;;5081079;28;20448;-52
2023/06/19 06:20:13;;;;;;;4.17;3.83;;;24.90;70.60;;;;;;5078572;28;20485;-52
2023/06/19 06:22:40;;;;;;;4.30;4.00;;;24.90;70.70;;;;;;5075448;28;20473;-54
2023/06/19 06:25:07;;;;;;;5.20;4.80;;;24.90;70.60;;;;;;5076201;28;20477;-56
2023/06/19 06:27:34;;;;;;;5.13;4.83;;;25.00;70.70;;;;;;5076168;28;20567;-53
2023/06/19 06:30:01;;;;;;;3.90;3.60;;;24.90;70.90;;;;;;5074516;28;20464;-56
2023/06/19 06:32:30;;;;;;;3.63;3.33;;;25.00;71.00;;;;;;5076471;28;20484;-55
2023/06/19 06:34:57;;;;;;;4.20;3.90;;;25.00;71.00;;;;;;5079845;28;20591;-53
2023/06/19 06:37:24;;;;;;;4.80;4.40;;;25.00;71.00;;;;;;5082326;28;20471;-54
2023/06/19 06:39:51;;;;;;;4.53;3.97;;;25.00;71.00;;;;;;5081118;28;20990;-52
2023/06/19 06:42:18;;;;;;;3.70;3.40;;;25.00;71.00;;;;;;5072512;28;20959;-51
2023/06/19 06:44:45;;;;;;;4.10;3.80;;;25.00;71.10;;;;;;5072270;28;20460;-56
2023/06/19 06:47:12;;;;;;;4.60;4.30;;;25.00;71.20;;;;;;5076473;28;20520;-52
2023/06/19 06:49:40;;;;;;;3.90;3.60;;;25.00;71.20;;;;;;5072880;28;20461;-55
2023/06/19 06:52:08;;;;;;;4.83;4.43;;;25.00;71.20;;;;;;5073866;28;20486;-52
2023/06/19 06:54:35;;;;;;;4.50;3.60;;;25.00;71.20;;;;;;5074771;28;20949;-53
2023/06/19 06:57:01;;;;;;;4.77;4.27;;;25.00;71.70;;;;;;5072581;28;20957;-55
2023/06/19 06:59:28;;;;;;;4.20;3.80;;;25.00;72.90;;;;;;5074026;28;20464;-54
2023/06/19 07:01:56;;;;;;;3.90;3.33;;;25.00;73.10;;;;;;5073180;28;20871;-55
2023/06/19 07:04:22;;;;;;;4.37;3.60;;;25.10;73.60;;;;;;5075572;28;20452;-55
2023/06/19 07:06:50;;;;;;;5.10;3.20;;;25.10;74.30;;;;;;5082551;28;20456;-52
2023/06/19 07:09:17;;;;;;;3.30;3.00;;;25.10;74.90;;;;;;5073970;28;20944;-51
2023/06/19 07:11:44;;;;;;;3.10;2.90;;;25.10;75.10;;;;;;5085517;28;20464;-52
2023/06/19 07:14:11;;;;;;;3.13;2.93;;;25.10;75.70;;;;;;5075006;28;20460;-53
2023/06/19 07:16:37;;;;;;;6.30;3.43;;;25.10;75.70;;;;;;5074384;28;20510;-57
2023/06/19 07:19:04;;;;;;;3.40;3.20;;;25.10;75.40;;;;;;5074481;28;20464;-56
2023/06/19 07:21:31;;;;;;;3.20;2.90;;;25.10;75.10;;;;;;5083061;28;20452;-57
2023/06/19 07:24:00;;;;;;;3.50;2.83;;;25.10;75.50;;;;;;5085214;28;20476;-55
2023/06/19 07:26:27;;;;;;;3.40;3.10;;;25.10;76.50;;;;;;5078496;28;20501;-57
2023/06/19 07:28:53;;;;;;;3.70;3.17;;;25.10;75.70;;;;;;5079793;28;20485;-57
2023/06/19 07:31:20;;;;;;;3.30;3.07;;;25.10;76.30;;;;;;5070778;28;21186;-57
2023/06/19 07:33:46;;;;;;;4.53;3.43;;;25.10;76.20;;;;;;5067408;28;20456;-54
2023/06/19 07:36:14;;;;;;;4.60;4.20;;;25.10;76.40;;;;;;5077658;28;20449;-58
2023/06/19 07:38:40;;;;;;;4.70;3.87;;;25.10;76.50;;;;;;5074387;28;20552;-54
2023/06/19 07:41:09;;;;;;;3.83;3.43;;;25.10;76.50;;;;;;5075885;28;21035;-55
2023/06/19 07:43:36;;;;;;;3.77;3.47;;;25.10;77.10;;;;;;5079747;28;20501;-57
2023/06/19 07:46:03;;;;;;;3.70;3.40;;;25.10;77.20;;;;;;5069243;28;20903;-56
2023/06/19 07:48:30;;;;;;;3.73;3.33;;;25.10;76.70;;;;;;5072831;28;20502;-57
2023/06/19 07:50:57;;;;;;;4.10;3.80;;;25.10;76.70;;;;;;5074449;28;20951;-57
2023/06/19 07:53:23;;;;;;;4.10;3.80;;;25.10;76.50;;;;;;5081241;28;20456;-57
2023/06/19 07:55:50;;;;;;;3.87;3.57;;;25.10;77.10;;;;;;5075987;28;20829;-57
2023/06/19 07:58:18;;;;;;;4.53;4.13;;;25.10;77.00;;;;;;5072031;28;20461;-57
2023/06/19 08:00:45;;;;;;;4.77;4.00;;;25.10;76.90;;;;;;5079163;28;20869;-57
2023/06/19 08:03:11;;;;;;;4.73;4.07;;;25.10;77.10;;;;;;5072034;28;20536;-57
2023/06/19 08:05:38;;;;;;;4.83;3.13;;;25.10;77.50;;;;;;5070726;28;20891;-55
2023/06/19 08:08:05;;;;;;;3.90;3.53;;;25.10;77.50;;;;;;5075141;28;20483;-56
2023/06/19 08:10:32;;;;;;;4.60;3.83;;;25.10;77.60;;;;;;5071331;28;20460;-56
2023/06/19 08:12:58;;;;;;;3.63;3.30;;;25.10;77.50;;;;;;5074935;28;21005;-57
2023/06/19 08:15:26;;;;;;;5.13;3.97;;;25.10;77.20;;;;;;5075071;28;21038;-57
2023/06/19 08:17:53;;;;;;;4.03;3.73;;;25.10;76.90;;;;;;5075545;28;20591;-57
2023/06/19 08:20:20;;;;;;;4.20;3.07;;;25.10;76.70;;;;;;5071023;28;20463;-56
2023/06/19 08:22:47;;;;;;;4.57;2.70;;;25.10;76.60;;;;;;5074086;28;21013;-57
2023/06/19 08:25:14;;;;;;;3.30;3.00;;;25.10;76.50;;;;;;5078635;28;20479;-56
2023/06/19 08:27:40;;;;;;;4.43;3.40;;;25.10;76.10;;;;;;5069288;28;20472;-58
2023/06/19 08:30:08;;;;;;;3.37;2.80;;;25.10;76.00;;;;;;5073271;28;20484;-58
2023/06/19 08:32:36;;;;;;;3.77;3.47;;;25.10;75.90;;;;;;5080235;28;20452;-56
2023/06/19 08:35:03;;;;;;;3.30;3.10;;;25.10;75.70;;;;;;5075228;28;20509;-53
2023/06/19 08:37:30;;;;;;;3.30;3.00;;;25.00;75.70;;;;;;5067088;28;20557;-52
2023/06/19 08:39:57;;;;;;;4.63;3.40;;;25.10;76.00;;;;;;5070378;28;20472;-52
2023/06/19 08:42:24;;;;;;;4.40;4.00;;;25.10;76.10;;;;;;5072438;28;20453;-55
2023/06/19 08:44:50;;;;;;;3.17;2.97;;;25.10;76.00;;;;;;5075495;28;20899;-52
2023/06/19 08:47:17;;;;;;;3.67;3.37;;;25.10;76.10;;;;;;5073124;28;20473;-50
2023/06/19 08:49:46;;;;;;;6.60;4.10;;;25.10;75.90;;;;;;5079415;28;21011;-53
2023/06/19 08:52:13;;;;;;;3.10;2.80;;;25.10;76.10;;;;;;5075850;28;20543;-53
2023/06/19 08:54:43;;;;;;;5.17;3.07;;;25.10;76.20;;;;;;5072994;28;21417;-56
2023/06/19 08:57:10;;;;;;;9.23;3.70;;;25.10;76.40;;;;;;5077165;28;20456;-54
2023/06/19 08:59:37;;;;;;;4.03;3.20;;;25.10;76.40;;;;;;5074720;28;20915;-55
2023/06/19 09:02:04;;;;;;;3.23;2.93;;;25.10;76.50;;;;;;5083512;28;20805;-55
2023/06/19 09:04:31;;;;;;;5.17;3.20;;;25.10;76.90;;;;;;5071545;28;20467;-54
2023/06/19 09:07:00;;;;;;;4.07;3.77;;;25.10;77.10;;;;;;5088306;28;20547;-53
2023/06/19 09:09:28;;;;;;;3.30;3.10;;;25.10;77.20;;;;;;5079027;28;20483;-57
2023/06/19 09:12:02;;;;;;;3.03;2.83;;;25.10;77.10;;;;;;5076270;28;20461;-58
2023/06/19 09:14:33;;;;;;;3.93;3.63;;;25.10;77.70;;;;;;5067680;28;20449;-56
2023/06/19 09:17:00;;;;;;;3.77;3.47;;;25.10;77.30;;;;;;5087686;28;21256;-54
2023/06/19 09:19:26;;;;;;;3.73;3.40;;;25.10;77.30;;;;;;5083246;28;20457;-53
2023/06/19 09:21:53;;;;;;;3.70;3.40;;;25.10;77.30;;;;;;5079363;28;20465;-57
2023/06/19 09:24:21;;;;;;;3.07;2.87;;;25.10;77.30;;;;;;5082975;28;20485;-51
2023/06/19 09:26:48;;;;;;;3.70;3.00;;;25.10;77.20;;;;;;5079225;28;20464;-51
2023/06/19 09:29:17;;;;;;;3.10;2.80;;;25.20;77.20;;;;;;5075780;28;20481;-53
2023/06/19 09:31:44;;;;;;;2.90;2.70;;;25.10;76.80;;;;;;5069293;28;20457;-57
2023/06/19 09:34:11;;;;;;;3.70;3.33;;;25.20;76.80;;;;;;5063630;28;20465;-55
2023/06/19 09:36:38;;;;;;;3.73;3.23;;;25.10;77.00;;;;;;5081696;28;20457;-55
2023/06/19 09:39:05;;;;;;;3.00;2.70;;;25.10;76.70;;;;;;5084026;28;20554;-55
2023/06/19 09:41:35;;;;;;;4.93;3.70;;;25.10;76.80;;;;;;5081656;28;20460;-56
2023/06/19 09:44:03;;;;;;;3.27;3.07;;;25.20;76.70;;;;;;5081794;28;20976;-54
2023/06/19 09:46:32;;;;;;;4.03;3.33;;;25.10;76.40;;;;;;5079139;28;20471;-55
2023/06/19 09:49:02;;;;;;;3.27;3.07;;;25.10;76.40;;;;;;5076149;28;20568;-56
2023/06/19 09:51:32;;;;;;;3.80;3.40;;;25.10;76.30;;;;;;5077927;28;20457;-57
2023/06/19 09:54:00;;;;;;;3.97;3.20;;;25.10;76.20;;;;;;5081363;28;20460;-52
2023/06/19 09:56:28;;;;;;;3.13;2.93;;;25.10;76.20;;;;;;5077399;28;20440;-55
2023/06/19 09:58:59;;;;;;;3.70;3.20;;;25.20;76.30;;;;;;5081707;28;20470;-53
2023/06/19 10:01:28;;;;;;;4.40;3.30;;;25.10;76.10;;;;;;5084196;28;20979;-53
2023/06/19 10:04:04;;;;;;;4.80;3.20;;;25.10;76.10;;;;;;5077384;28;20881;-52
2023/06/19 10:06:31;;;;;;;2.73;2.53;;;25.10;76.10;;;;;;5081419;28;20535;-53
2023/06/19 10:09:07;;;;;;;3.37;3.07;;;25.10;76.10;;;;;;5088219;28;20475;-56
2023/06/19 10:11:46;;;;;;;3.17;2.90;;;25.10;76.00;;;;;;5080470;28;20456;-53
2023/06/19 10:14:17;;;;;;;3.70;3.50;;;25.20;76.00;;;;;;5078995;28;21004;-53
2023/06/19 10:16:44;;;;;;;3.13;2.80;;;25.10;76.00;;;;;;5084273;28;20436;-56
2023/06/19 10:19:15;;;;;;;3.27;2.70;;;25.10;75.90;;;;;;5075215;28;20871;-55
2023/06/19 10:21:46;;;;;;;3.10;2.90;;;25.10;75.80;;;;;;5079185;28;20539;-56
2023/06/19 10:24:18;;;;;;;3.03;2.83;;;25.10;75.90;;;;;;5084180;28;20477;-52
2023/06/19 10:26:45;;;;;;;3.13;2.87;;;25.10;75.90;;;;;;5074657;28;20859;-56
2023/06/19 10:29:16;;;;;;;3.33;3.13;;;25.10;75.70;;;;;;5076977;28;20484;-54
2023/06/19 10:31:44;;;;;;;3.10;2.80;;;25.10;75.90;;;;;;5083586;28;20511;-54
2023/06/19 10:34:11;;;;;;;3.50;3.10;;;25.10;75.70;;;;;;5072953;28;20498;-56
2023/06/19 10:36:38;;;;;;;3.53;3.30;;;25.10;75.70;;;;;;5076062;28;20453;-55
2023/06/19 10:39:05;;;;;;;3.30;2.40;;;25.10;75.70;;;;;;5070373;28;20464;-56
2023/06/19 10:41:32;;;;;;;2.80;2.60;;;25.10;75.70;;;;;;5078770;28;20452;-55
2023/06/19 10:44:01;;;;;;;2.70;2.50;;;25.10;75.70;;;;;;5079340;28;20513;-56
2023/06/19 10:46:32;;;;;;;2.67;2.47;;;25.10;75.70;;;;;;5078945;28;20452;-56
2023/06/19 10:49:01;;;;;;;2.80;2.60;;;25.10;75.70;;;;;;5077977;28;20992;-56
2023/06/19 10:51:27;;;;;;;3.27;3.07;;;25.10;75.70;;;;;;5077468;28;20461;-56
2023/06/19 10:53:55;;;;;;;3.00;2.80;;;25.10;75.70;;;;;;5078077;28;20463;-55
2023/06/19 10:56:22;;;;;;;3.00;2.80;;;25.10;75.70;;;;;;5076696;28;20770;-54
2023/06/19 10:58:49;;;;;;;5.03;3.17;;;25.10;75.70;;;;;;5080050;28;20463;-52
2023/06/19 11:01:16;;;;;;;4.53;3.77;;;25.10;75.70;;;;;;5075961;28;20479;-55
2023/06/19 11:03:44;;;;;;;3.10;2.90;;;25.10;75.70;;;;;;5072974;28;20457;-55
2023/06/19 11:06:10;;;;;;;2.93;2.73;;;25.10;76.60;;;;;;5074235;28;20460;-54
2023/06/19 11:08:37;;;;;;;3.87;2.70;;;25.10;75.90;;;;;;5073615;28;20495;-54
2023/06/19 11:11:04;;;;;;;2.90;2.60;;;25.10;76.00;;;;;;5072489;28;20453;-54
2023/06/19 11:13:30;;;;;;;4.73;3.60;;;25.10;76.10;;;;;;5076790;28;20437;-57
2023/06/19 11:15:59;;;;;;;3.17;2.87;;;25.10;76.20;;;;;;5068901;28;20828;-54
2023/06/19 11:18:26;;;;;;;3.43;3.13;;;25.10;76.20;;;;;;5068845;28;20468;-56
2023/06/19 11:20:54;;;;;;;4.67;2.93;;;25.20;76.40;;;;;;5080821;28;20457;-52
2023/06/19 11:23:27;;;;;;;4.17;3.10;;;25.10;76.40;;;;;;5075191;28;21180;-54
2023/06/19 11:25:53;;;;;;;3.90;2.77;;;25.20;76.70;;;;;;5075402;28;20547;-54
2023/06/19 11:28:22;;;;;;;2.60;2.40;;;25.20;76.70;;;;;;5074558;28;20457;-54
2023/06/19 11:30:49;;;;;;;3.20;2.90;;;25.20;76.70;;;;;;5077322;28;20537;-55
2023/06/19 11:33:22;;;;;;;4.70;2.70;;;25.20;76.90;;;;;;5077238;28;20503;-57
2023/06/19 11:35:49;;;;;;;3.30;2.90;;;25.20;76.70;;;;;;5076546;28;20560;-55
2023/06/19 11:38:19;;;;;;;2.37;2.20;;;25.20;76.80;;;;;;5075018;28;20456;-56
2023/06/19 11:40:46;;;;;;;3.27;2.60;;;25.20;76.80;;;;;;5074334;28;20513;-55
2023/06/19 11:43:13;;;;;;;2.77;2.57;;;25.20;76.80;;;;;;5072831;28;20505;-54
2023/06/19 11:45:48;;;;;;;2.60;2.40;;;25.20;76.80;;;;;;5075339;28;20436;-55
2023/06/19 11:48:15;;;;;;;2.77;2.57;;;25.20;76.70;;;;;;5075608;28;20455;-55
2023/06/19 11:50:41;;;;;;;2.67;2.47;;;25.20;76.70;;;;;;5081581;28;20490;-55
2023/06/19 11:53:08;;;;;;;3.47;3.17;;;25.20;76.50;;;;;;5077735;28;20466;-55
2023/06/19 11:55:36;;;;;;;2.90;2.37;;;25.20;76.80;;;;;;5079259;28;20456;-54
2023/06/19 11:58:03;;;;;;;3.53;2.97;;;25.10;76.50;;;;;;5072007;28;20460;-55
2023/06/19 12:00:30;;;;;;;3.23;2.93;;;25.20;77.00;;;;;;5070294;28;20452;-52
2023/06/19 12:02:58;;;;;;;5.50;2.90;;;25.20;77.00;;;;;;5068436;28;20456;-54
2023/06/19 12:05:25;;;;;;;2.77;2.57;;;25.20;76.90;;;;;;5072838;28;20548;-55
2023/06/19 12:07:52;;;;;;;3.17;2.87;;;25.20;76.80;;;;;;5080222;28;20456;-53
2023/06/19 12:10:18;;;;;;;3.60;2.20;;;25.20;76.80;;;;;;5073114;28;20467;-51
2023/06/19 12:12:46;;;;;;;3.10;2.90;;;25.10;76.70;;;;;;5078368;28;20455;-52
2023/06/19 12:15:13;;;;;;;2.60;2.40;;;25.10;76.70;;;;;;5071754;28;20453;-51
2023/06/19 12:17:40;;;;;;;3.60;2.63;;;25.10;76.50;;;;;;5076277;28;20460;-53
2023/06/19 12:20:08;;;;;;;2.30;2.10;;;25.20;76.60;;;;;;5072304;28;20456;-53
2023/06/19 12:22:35;;;;;;;5.40;3.17;;;25.10;76.50;;;;;;5076255;28;20598;-52
2023/06/19 12:25:02;;;;;;;2.90;2.70;;;25.10;76.60;;;;;;5079934;28;20481;-52
2023/06/19 12:27:29;;;;;;;2.00;1.90;;;25.10;76.50;;;;;;5078391;28;20453;-53
2023/06/19 12:29:57;;;;;;;3.80;2.63;;;25.10;76.50;;;;;;5081527;28;21014;-53
2023/06/19 12:32:24;;;;;;;3.03;2.73;;;25.10;76.40;;;;;;5076196;28;20444;-52
2023/06/19 12:34:53;;;;;;;3.27;2.77;;;25.20;76.50;;;;;;5083287;28;20545;-51
2023/06/19 12:37:20;;;;;;;2.83;2.63;;;25.10;76.40;;;;;;5083307;28;20514;-54
2023/06/19 12:39:47;;;;;;;2.90;2.60;;;25.10;76.30;;;;;;5082025;28;20466;-55
2023/06/19 12:42:14;;;;;;;2.73;2.47;;;25.10;76.30;;;;;;5077669;28;22144;-53
2023/06/19 12:44:41;;;;;;;3.30;2.70;;;25.10;76.20;;;;;;5079652;28;20860;-54
2023/06/19 12:47:09;;;;;;;2.53;2.33;;;25.10;76.20;;;;;;5076666;28;20455;-55
2023/06/19 12:49:36;;;;;;;3.30;3.00;;;25.10;76.10;;;;;;5076371;28;20966;-53